createdAt,value
2022-11-06T00:00:26.804Z,11.10
2022-11-06T00:03:12.942Z,11.10
2022-11-06T00:06:17.446Z,11.10
2022-11-06T00:09:06.833Z,11.00
2022-11-06T00:11:53.089Z,11.10
2022-11-06T00:14:39.141Z,11.10
2022-11-06T00:17:24.502Z,10.90
2022-11-06T00:20:11.724Z,10.90
2022-11-06T00:22:57.935Z,10.90
2022-11-06T00:25:44.075Z,10.80
2022-11-06T00:28:29.392Z,10.80
2022-11-06T00:31:20.576Z,10.80
2022-11-06T00:34:07.570Z,10.80
2022-11-06T00:36:53.151Z,10.80
2022-11-06T00:39:39.091Z,10.90
2022-11-06T00:42:24.510Z,10.90
2022-11-06T00:45:10.585Z,10.90
2022-11-06T00:47:56.888Z,10.90
2022-11-06T00:50:42.355Z,10.90
2022-11-06T00:53:27.788Z,10.90
2022-11-06T00:56:14.455Z,10.90
2022-11-06T00:59:02.228Z,11.00
2022-11-06T01:01:47.891Z,11.10
2022-11-06T01:04:33.435Z,11.20
2022-11-06T01:07:19.139Z,11.20
2022-11-06T01:10:05.726Z,11.20
2022-11-06T01:12:51.111Z,10.90
2022-11-06T01:15:37.129Z,10.80
2022-11-06T01:18:22.806Z,10.70
2022-11-06T01:21:11.491Z,10.70
2022-11-06T01:24:19.660Z,10.80
2022-11-06T01:27:25.455Z,10.80
2022-11-06T01:30:11.715Z,10.80
2022-11-06T01:32:57.177Z,11.00
2022-11-06T01:35:51.085Z,11.00
2022-11-06T01:38:36.941Z,10.90
2022-11-06T01:41:25.384Z,10.80
2022-11-06T01:44:35.894Z,10.70
2022-11-06T01:47:25.905Z,10.70
2022-11-06T01:50:14.799Z,10.80
2022-11-06T01:53:02.446Z,10.90
2022-11-06T01:55:51.612Z,10.80
2022-11-06T01:58:40.761Z,10.70
2022-11-06T02:01:31.262Z,10.70
2022-11-06T02:04:26.401Z,11.80
2022-11-06T02:07:13.057Z,10.90
2022-11-06T02:09:58.391Z,10.90
2022-11-06T02:13:05.346Z,10.80
2022-11-06T02:16:09.779Z,10.80
2022-11-06T02:19:10.931Z,10.70
2022-11-06T02:21:59.477Z,10.60
2022-11-06T02:25:06.610Z,10.70
2022-11-06T02:28:03.305Z,10.80
2022-11-06T02:30:51.575Z,10.70
2022-11-06T02:33:43.813Z,10.50
2022-11-06T02:36:35.757Z,9.50
2022-11-06T02:39:24.532Z,10.40
2022-11-06T02:42:12.826Z,10.40
2022-11-06T02:45:00.010Z,10.40
2022-11-06T02:47:50.149Z,10.20
2022-11-06T02:50:42.503Z,10.30
2022-11-06T02:53:30.229Z,10.30
2022-11-06T02:56:20.161Z,10.30
2022-11-06T02:59:36.989Z,10.30
2022-11-06T03:02:49.599Z,10.40
2022-11-06T03:06:10.802Z,10.30
2022-11-06T03:09:08.964Z,10.20
2022-11-06T03:12:00.890Z,10.30
2022-11-06T03:15:03.102Z,10.20
2022-11-06T03:17:55.729Z,10.20
2022-11-06T03:21:16.478Z,10.10
2022-11-06T03:24:44.933Z,10.00
2022-11-06T03:27:45.759Z,10.10
2022-11-06T03:30:35.506Z,10.10
2022-11-06T03:34:01.166Z,10.10
2022-11-06T03:36:54.756Z,10.20
2022-11-06T03:39:46.833Z,10.20
2022-11-06T03:42:33.021Z,10.20
2022-11-06T03:45:22.704Z,10.10
2022-11-06T03:48:22.236Z,10.00
2022-11-06T03:51:23.728Z,10.10
2022-11-06T03:54:20.602Z,10.20
2022-11-06T03:57:31.978Z,10.20
2022-11-06T04:00:20.678Z,10.30
2022-11-06T04:03:13.462Z,10.20
2022-11-06T04:06:51.082Z,10.20
2022-11-06T04:10:01.299Z,10.10
2022-11-06T04:13:08.128Z,10.10
2022-11-06T04:15:55.050Z,10.00
2022-11-06T04:18:41.266Z,9.90
2022-11-06T04:21:33.046Z,9.10
2022-11-06T04:25:12.163Z,10.00
2022-11-06T04:28:19.411Z,9.90
2022-11-06T04:31:12.815Z,9.90
2022-11-06T04:34:22.193Z,9.90
2022-11-06T04:37:36.795Z,9.70
2022-11-06T04:40:36.876Z,9.60
2022-11-06T04:43:51.869Z,9.60
2022-11-06T04:46:42.945Z,9.70
2022-11-06T04:49:32.592Z,9.90
2022-11-06T04:52:26.436Z,9.90
2022-11-06T04:55:12.022Z,9.80
2022-11-06T04:57:57.719Z,9.60
2022-11-06T05:00:47.839Z,9.50
2022-11-06T05:03:33.373Z,9.50
2022-11-06T05:06:18.971Z,9.60
2022-11-06T05:09:04.815Z,9.70
2022-11-06T05:11:51.049Z,9.70
2022-11-06T05:14:37.024Z,9.50
2022-11-06T05:17:22.562Z,9.30
2022-11-06T05:20:08.377Z,9.10
2022-11-06T05:23:02.702Z,9.30
2022-11-06T05:25:48.100Z,9.50
2022-11-06T05:28:34.591Z,9.60
2022-11-06T05:31:20.484Z,9.60
2022-11-06T05:34:06.867Z,9.70
2022-11-06T05:36:53.778Z,9.80
2022-11-06T05:39:41.951Z,9.70
2022-11-06T05:42:30.528Z,9.70
2022-11-06T05:45:15.706Z,9.70
2022-11-06T05:48:02.849Z,9.60
2022-11-06T05:50:48.571Z,9.50
2022-11-06T05:53:36.922Z,9.40
2022-11-06T05:56:22.725Z,9.40
2022-11-06T05:59:09.133Z,9.40
2022-11-06T06:01:55.023Z,9.40
2022-11-06T06:04:40.737Z,9.40
2022-11-06T06:07:26.146Z,9.30
2022-11-06T06:10:11.782Z,9.40
2022-11-06T06:12:57.323Z,9.40
2022-11-06T06:15:43.131Z,9.40
2022-11-06T06:18:30.232Z,9.30
2022-11-06T06:21:15.875Z,9.40
2022-11-06T06:24:01.353Z,9.40
2022-11-06T06:26:47.162Z,9.50
2022-11-06T06:29:32.773Z,9.50
2022-11-06T06:32:18.590Z,9.60
2022-11-06T06:35:04.523Z,9.50
2022-11-06T06:37:56.330Z,9.60
2022-11-06T06:40:42.361Z,9.70
2022-11-06T06:43:28.667Z,10.00
2022-11-06T06:46:13.975Z,10.10
2022-11-06T06:48:59.666Z,10.40
2022-11-06T06:51:47.353Z,10.90
2022-11-06T06:54:32.952Z,11.60
2022-11-06T06:57:18.628Z,12.40
2022-11-06T07:00:05.057Z,13.10
2022-11-06T07:02:51.046Z,13.80
2022-11-06T07:05:37.624Z,14.30
2022-11-06T07:08:23.079Z,14.40
2022-11-06T07:11:10.784Z,14.20
2022-11-06T07:13:57.786Z,14.60
2022-11-06T07:16:47.298Z,15.50
2022-11-06T07:19:35.405Z,15.80
2022-11-06T07:22:29.528Z,15.50
2022-11-06T07:25:18.049Z,15.70
2022-11-06T07:28:05.690Z,15.80
2022-11-06T07:30:51.540Z,15.10
2022-11-06T07:33:37.041Z,13.20
2022-11-06T07:36:22.655Z,12.90
2022-11-06T07:39:09.120Z,14.80
2022-11-06T07:41:55.154Z,16.80
2022-11-06T07:44:40.807Z,17.50
2022-11-06T07:47:27.889Z,17.90
2022-11-06T07:50:14.716Z,18.70
2022-11-06T07:53:03.177Z,18.10
2022-11-06T07:55:54.176Z,18.80
2022-11-06T07:58:40.633Z,19.30
2022-11-06T08:01:26.719Z,19.80
2022-11-06T08:04:13.153Z,20.30
2022-11-06T08:06:58.736Z,20.60
2022-11-06T08:09:44.201Z,21.20
2022-11-06T08:12:29.819Z,21.20
2022-11-06T08:15:15.366Z,20.90
2022-11-06T08:18:01.079Z,19.90
2022-11-06T08:20:46.362Z,18.80
2022-11-06T08:23:32.220Z,19.10
2022-11-06T08:26:18.332Z,20.40
2022-11-06T08:29:03.847Z,18.00
2022-11-06T08:31:49.885Z,16.90
2022-11-06T08:34:36.227Z,16.30
2022-11-06T08:37:22.005Z,15.70
2022-11-06T08:40:08.392Z,14.50
2022-11-06T08:43:00.224Z,14.00
2022-11-06T08:45:45.875Z,14.20
2022-11-06T08:48:32.100Z,15.40
2022-11-06T08:51:17.911Z,17.30
2022-11-06T08:54:03.700Z,20.50
2022-11-06T08:56:49.814Z,20.90
2022-11-06T08:59:36.990Z,21.20
2022-11-06T09:02:22.788Z,19.60
2022-11-06T09:05:09.051Z,20.50
2022-11-06T09:07:54.736Z,23.00
2022-11-06T09:10:41.815Z,24.10
2022-11-06T09:13:27.680Z,24.30
2022-11-06T09:16:16.090Z,24.80
2022-11-06T09:19:01.667Z,25.30
2022-11-06T09:21:53.464Z,26.20
2022-11-06T09:25:01.803Z,26.70
2022-11-06T09:27:58.834Z,27.70
2022-11-06T09:30:45.010Z,26.50
2022-11-06T09:33:30.567Z,25.50
2022-11-06T09:36:15.905Z,24.30
2022-11-06T09:39:01.310Z,23.20
2022-11-06T09:42:05.481Z,22.80
2022-11-06T09:45:11.157Z,23.20
2022-11-06T09:48:05.537Z,23.30
2022-11-06T09:51:13.210Z,23.70
2022-11-06T09:54:07.561Z,23.70
2022-11-06T09:57:00.439Z,22.50
2022-11-06T09:59:47.884Z,19.20
2022-11-06T10:02:46.036Z,17.80
2022-11-06T10:05:34.114Z,17.00
2022-11-06T10:08:28.462Z,16.90
2022-11-06T10:11:14.229Z,16.50
2022-11-06T10:14:18.001Z,15.90
2022-11-06T10:17:09.472Z,15.70
2022-11-06T10:20:13.707Z,15.60
2022-11-06T10:23:33.334Z,15.90
2022-11-06T10:26:22.398Z,15.70
2022-11-06T10:29:34.432Z,15.70
2022-11-06T10:32:38.756Z,16.00
2022-11-06T10:35:33.726Z,15.90
2022-11-06T10:38:44.524Z,15.30
2022-11-06T10:41:35.984Z,15.50
2022-11-06T10:44:30.946Z,16.10
2022-11-06T10:47:22.008Z,16.20
2022-11-06T10:50:12.586Z,16.00
2022-11-06T10:53:19.295Z,15.90
2022-11-06T10:56:41.095Z,15.80
2022-11-06T10:59:27.702Z,15.50
2022-11-06T11:02:36.698Z,15.70
2022-11-06T11:05:24.812Z,15.80
2022-11-06T11:08:32.005Z,15.80
2022-11-06T11:11:26.311Z,15.50
2022-11-06T11:14:22.941Z,15.50
2022-11-06T11:17:09.013Z,15.90
2022-11-06T11:19:54.633Z,16.20
2022-11-06T11:22:40.190Z,16.30
2022-11-06T11:25:26.391Z,16.70
2022-11-06T11:28:33.141Z,16.60
2022-11-06T11:31:19.316Z,16.50
2022-11-06T11:34:15.170Z,16.40
2022-11-06T11:37:08.288Z,16.30
2022-11-06T11:40:18.888Z,16.20
2022-11-06T11:43:19.761Z,16.20
2022-11-06T11:46:05.217Z,16.50
2022-11-06T11:48:51.913Z,16.50
2022-11-06T11:51:42.437Z,16.40
2022-11-06T11:54:52.527Z,16.30
2022-11-06T11:57:44.915Z,16.30
2022-11-06T12:00:31.148Z,16.10
2022-11-06T12:03:16.918Z,16.00
2022-11-06T12:06:12.692Z,15.90
2022-11-06T12:08:58.434Z,15.50
2022-11-06T12:11:44.609Z,16.10
2022-11-06T12:14:37.851Z,16.40
2022-11-06T12:17:24.600Z,16.60
2022-11-06T12:20:19.701Z,16.70
2022-11-06T12:23:13.815Z,16.10
2022-11-06T12:26:27.225Z,16.30
2022-11-06T12:29:18.436Z,17.00
2022-11-06T12:32:26.163Z,16.90
2022-11-06T12:35:28.743Z,16.80
2022-11-06T12:38:37.809Z,17.00
2022-11-06T12:41:40.626Z,16.80
2022-11-06T12:44:27.172Z,16.80
2022-11-06T12:47:39.406Z,16.70
2022-11-06T12:50:33.607Z,16.50
2022-11-06T12:53:26.145Z,16.70
2022-11-06T12:56:55.865Z,16.90
2022-11-06T13:00:11.317Z,16.80
2022-11-06T13:03:18.616Z,16.50
2022-11-06T13:06:13.495Z,16.70
2022-11-06T13:09:04.889Z,17.00
2022-11-06T13:12:27.523Z,16.70
2022-11-06T13:15:30.880Z,16.60
2022-11-06T13:18:46.792Z,16.80
2022-11-06T13:21:52.173Z,17.10
2022-11-06T13:24:38.097Z,17.10
2022-11-06T13:27:39.772Z,16.80
2022-11-06T13:30:25.422Z,16.90
2022-11-06T13:33:16.797Z,17.00
2022-11-06T13:36:03.144Z,17.00
2022-11-06T13:38:55.270Z,17.00
2022-11-06T13:41:40.751Z,17.10
2022-11-06T13:44:27.359Z,17.20
2022-11-06T13:47:18.343Z,17.10
2022-11-06T13:50:28.397Z,16.70
2022-11-06T13:53:21.634Z,16.60
2022-11-06T13:56:35.158Z,16.20
2022-11-06T13:59:23.861Z,16.50
2022-11-06T14:02:22.095Z,16.50
2022-11-06T14:05:41.439Z,16.50
2022-11-06T14:08:32.066Z,16.70
2022-11-06T14:11:21.629Z,16.60
2022-11-06T14:14:11.416Z,16.60
2022-11-06T14:17:15.622Z,16.20
2022-11-06T14:20:25.915Z,15.90
2022-11-06T14:23:30.009Z,16.40
2022-11-06T14:26:40.307Z,16.60
2022-11-06T14:29:29.002Z,16.60
2022-11-06T14:32:21.512Z,16.70
2022-11-06T14:35:28.960Z,16.70
2022-11-06T14:38:31.078Z,16.70
2022-11-06T14:41:53.325Z,16.70
2022-11-06T14:44:45.724Z,16.30
2022-11-06T14:47:36.511Z,16.50
2022-11-06T14:50:27.948Z,16.50
2022-11-06T14:53:24.044Z,16.60
2022-11-06T14:56:11.740Z,16.50
2022-11-06T14:59:20.802Z,16.40
2022-11-06T15:02:29.952Z,16.20
2022-11-06T15:05:18.382Z,16.00
2022-11-06T15:08:05.958Z,15.80
2022-11-06T15:10:53.456Z,16.20
2022-11-06T15:13:38.939Z,16.40
2022-11-06T15:16:38.936Z,15.90
2022-11-06T15:19:34.832Z,15.70
2022-11-06T15:22:32.133Z,15.80
2022-11-06T15:25:17.935Z,16.30
2022-11-06T15:28:11.961Z,16.40
2022-11-06T15:31:04.485Z,16.40
2022-11-06T15:34:04.808Z,16.40
2022-11-06T15:36:55.354Z,16.40
2022-11-06T15:40:00.982Z,16.40
2022-11-06T15:42:47.646Z,16.50
2022-11-06T15:45:33.304Z,16.40
2022-11-06T15:48:23.381Z,16.10
2022-11-06T15:51:26.876Z,15.90
2022-11-06T15:54:14.359Z,15.80
2022-11-06T15:57:03.502Z,16.10
2022-11-06T15:59:49.496Z,16.10
2022-11-06T16:02:50.800Z,15.80
2022-11-06T16:05:37.659Z,15.60
2022-11-06T16:08:26.074Z,16.00
2022-11-06T16:11:15.563Z,16.20
2022-11-06T16:14:01.515Z,16.10
2022-11-06T16:16:55.539Z,16.00
2022-11-06T16:19:45.634Z,15.80
2022-11-06T16:22:34.446Z,15.60
2022-11-06T16:25:20.458Z,15.70
2022-11-06T16:28:15.611Z,15.80
2022-11-06T16:31:10.446Z,15.70
2022-11-06T16:33:58.207Z,15.20
2022-11-06T16:37:31.615Z,14.90
2022-11-06T16:40:52.785Z,14.80
2022-11-06T16:43:39.002Z,15.20
2022-11-06T16:46:24.716Z,15.20
2022-11-06T16:49:31.431Z,15.60
2022-11-06T16:52:34.085Z,15.60
2022-11-06T16:55:28.325Z,15.70
2022-11-06T16:58:17.350Z,15.70
2022-11-06T17:01:06.935Z,15.60
2022-11-06T17:03:54.842Z,15.60
2022-11-06T17:06:44.576Z,15.20
2022-11-06T17:09:33.874Z,15.00
2022-11-06T17:12:19.379Z,14.80
2022-11-06T17:15:04.993Z,14.50
2022-11-06T17:17:50.926Z,14.30
2022-11-06T17:20:37.309Z,14.10
2022-11-06T17:23:24.054Z,13.90
2022-11-06T17:26:37.678Z,14.30
2022-11-06T17:29:23.266Z,14.60
2022-11-06T17:32:09.322Z,14.60
2022-11-06T17:34:54.759Z,14.70
2022-11-06T17:37:40.647Z,14.40
2022-11-06T17:40:26.103Z,14.70
2022-11-06T17:43:12.725Z,14.10
2022-11-06T17:45:58.758Z,14.10
2022-11-06T17:48:44.233Z,14.30
2022-11-06T17:51:49.416Z,14.20
2022-11-06T17:54:37.140Z,13.20
2022-11-06T17:57:24.232Z,14.00
2022-11-06T18:00:11.307Z,13.80
2022-11-06T18:03:01.496Z,13.60
2022-11-06T18:05:47.487Z,13.50
2022-11-06T18:08:34.265Z,13.40
2022-11-06T18:11:24.946Z,13.40
2022-11-06T18:14:11.979Z,13.20
2022-11-06T18:16:58.007Z,13.20
2022-11-06T18:19:43.963Z,13.00
2022-11-06T18:22:29.365Z,12.90
2022-11-06T18:25:15.031Z,12.80
2022-11-06T18:28:03.848Z,12.90
2022-11-06T18:30:49.928Z,12.80
2022-11-06T18:33:35.705Z,12.80
2022-11-06T18:36:21.381Z,12.70
2022-11-06T18:39:08.016Z,12.70
2022-11-06T18:41:53.970Z,12.70
2022-11-06T18:44:41.337Z,12.70
2022-11-06T18:47:27.221Z,12.70
2022-11-06T18:50:13.206Z,12.60
2022-11-06T18:52:58.874Z,12.60
2022-11-06T18:55:45.940Z,12.50
2022-11-06T18:58:31.940Z,12.40
2022-11-06T19:01:21.412Z,12.40
2022-11-06T19:04:07.283Z,12.40
2022-11-06T19:06:53.184Z,12.40
2022-11-06T19:09:39.100Z,12.30
2022-11-06T19:12:24.535Z,12.30
2022-11-06T19:15:10.267Z,12.30
2022-11-06T19:17:55.745Z,12.30
2022-11-06T19:20:42.518Z,12.20
2022-11-06T19:23:28.575Z,12.20
2022-11-06T19:26:30.628Z,12.10
2022-11-06T19:29:17.712Z,12.10
2022-11-06T19:32:03.728Z,12.10
2022-11-06T19:34:49.331Z,12.20
2022-11-06T19:37:36.171Z,12.20
2022-11-06T19:40:21.875Z,12.10
2022-11-06T19:43:09.517Z,12.10
2022-11-06T19:45:56.091Z,12.00
2022-11-06T19:48:41.900Z,12.00
2022-11-06T19:51:27.586Z,11.90
2022-11-06T19:54:14.767Z,11.80
2022-11-06T19:57:27.259Z,11.70
2022-11-06T20:00:11.136Z,11.60
2022-11-06T20:02:57.100Z,11.70
2022-11-06T20:05:43.106Z,11.70
2022-11-06T20:08:28.524Z,11.70
2022-11-06T20:11:15.331Z,11.60
2022-11-06T20:14:02.211Z,11.50
2022-11-06T20:16:49.207Z,11.50
2022-11-06T20:19:35.238Z,11.50
2022-11-06T20:22:20.995Z,11.50
2022-11-06T20:25:06.874Z,11.50
2022-11-06T20:27:52.481Z,11.40
2022-11-06T20:30:38.293Z,11.30
2022-11-06T20:33:24.364Z,11.30
2022-11-06T20:36:13.892Z,11.40
2022-11-06T20:39:01.454Z,11.30
2022-11-06T20:41:49.878Z,11.30
2022-11-06T20:44:35.501Z,11.40
2022-11-06T20:47:21.160Z,11.40
2022-11-06T20:50:07.018Z,11.40
2022-11-06T20:52:52.290Z,11.30
2022-11-06T20:55:37.614Z,11.20
2022-11-06T20:58:23.554Z,11.10
2022-11-06T21:01:19.734Z,11.10
2022-11-06T21:04:06.589Z,11.10
2022-11-06T21:06:52.499Z,11.20
2022-11-06T21:09:38.416Z,11.10
2022-11-06T21:12:24.376Z,11.10
2022-11-06T21:15:11.005Z,11.00
2022-11-06T21:17:56.479Z,11.10
2022-11-06T21:20:42.191Z,11.00
2022-11-06T21:23:27.562Z,10.90
2022-11-06T21:26:25.197Z,11.00
2022-11-06T21:29:11.905Z,11.00
2022-11-06T21:31:57.582Z,11.00
2022-11-06T21:34:43.170Z,11.00
2022-11-06T21:37:32.903Z,10.90
2022-11-06T21:40:18.989Z,10.90
2022-11-06T21:43:04.636Z,10.90
2022-11-06T21:45:50.447Z,10.90
2022-11-06T21:48:52.017Z,10.90
2022-11-06T21:51:37.825Z,10.90
2022-11-06T21:54:41.695Z,10.90
2022-11-06T21:57:27.137Z,10.80
2022-11-06T22:00:14.493Z,10.80
2022-11-06T22:03:00.692Z,10.70
2022-11-06T22:05:46.747Z,10.70
2022-11-06T22:08:34.786Z,10.70
2022-11-06T22:11:23.852Z,10.70
2022-11-06T22:14:14.957Z,10.80
2022-11-06T22:17:00.778Z,10.80
2022-11-06T22:19:46.174Z,10.80
2022-11-06T22:22:31.671Z,10.70
2022-11-06T22:25:17.387Z,10.80
2022-11-06T22:28:02.816Z,10.80
2022-11-06T22:30:48.490Z,10.80
2022-11-06T22:33:35.101Z,10.80
2022-11-06T22:36:21.513Z,11.60
2022-11-06T22:39:09.160Z,10.70
2022-11-06T22:41:54.621Z,10.70
2022-11-06T22:44:40.654Z,10.60
2022-11-06T22:47:26.636Z,10.70
2022-11-06T22:50:12.072Z,10.70
2022-11-06T22:52:57.506Z,10.60
2022-11-06T22:55:43.544Z,10.60
2022-11-06T22:58:30.011Z,10.60
2022-11-06T23:01:21.758Z,10.50
2022-11-06T23:04:16.207Z,10.50
2022-11-06T23:07:02.664Z,10.40
2022-11-06T23:09:48.473Z,10.40
2022-11-06T23:12:34.308Z,10.30
2022-11-06T23:15:20.118Z,10.30
2022-11-06T23:18:05.876Z,10.30
2022-11-06T23:20:51.652Z,10.40
2022-11-06T23:23:37.170Z,10.40
2022-11-06T23:26:22.645Z,10.40
2022-11-06T23:29:08.505Z,10.40
2022-11-06T23:31:54.017Z,10.40
2022-11-06T23:34:39.793Z,10.30
2022-11-06T23:37:26.394Z,10.30
2022-11-06T23:40:12.622Z,10.30
2022-11-06T23:42:58.119Z,10.30
2022-11-06T23:45:49.545Z,10.30
2022-11-06T23:48:35.473Z,10.20
2022-11-06T23:51:22.727Z,10.20
2022-11-06T23:54:10.813Z,10.10
2022-11-06T23:56:56.403Z,10.20
2022-11-06T23:59:42.681Z,10.20
